createdAt,value
2022-08-16T00:01:40.713Z,99.90
2022-08-16T00:04:09.700Z,99.90
2022-08-16T00:06:39.175Z,99.90
2022-08-16T00:09:08.139Z,99.90
2022-08-16T00:11:40.875Z,99.90
2022-08-16T00:14:12.604Z,99.90
2022-08-16T00:17:06.162Z,99.90
2022-08-16T00:19:41.803Z,99.90
2022-08-16T00:22:13.751Z,99.90
2022-08-16T00:24:46.947Z,99.90
2022-08-16T00:27:18.011Z,99.90
2022-08-16T00:29:45.966Z,99.90
2022-08-16T00:32:18.013Z,99.90
2022-08-16T00:34:53.156Z,99.90
2022-08-16T00:37:57.122Z,99.90
2022-08-16T00:40:34.234Z,99.90
2022-08-16T00:43:24.127Z,99.90
2022-08-16T00:46:33.422Z,99.90
2022-08-16T00:48:58.670Z,99.90
2022-08-16T00:51:29.462Z,99.90
2022-08-16T00:53:57.853Z,99.90
2022-08-16T00:56:58.241Z,99.90
2022-08-16T00:59:23.694Z,99.90
2022-08-16T01:01:52.483Z,99.90
2022-08-16T01:04:30.040Z,99.90
2022-08-16T01:07:06.640Z,99.90
2022-08-16T01:09:38.637Z,99.90
2022-08-16T01:12:11.523Z,99.90
2022-08-16T01:14:58.311Z,99.90
2022-08-16T01:17:28.294Z,99.90
2022-08-16T01:20:24.653Z,99.90
2022-08-16T01:23:08.701Z,99.90
2022-08-16T01:25:42.443Z,99.90
2022-08-16T01:28:19.799Z,99.90
2022-08-16T01:30:53.653Z,99.90
2022-08-16T01:33:23.604Z,99.90
2022-08-16T01:35:53.352Z,99.90
2022-08-16T01:38:29.524Z,99.90
2022-08-16T01:41:05.662Z,99.90
2022-08-16T01:43:37.980Z,99.90
2022-08-16T01:46:37.136Z,99.90
2022-08-16T01:49:16.639Z,99.90
2022-08-16T01:51:51.396Z,99.90
2022-08-16T01:54:30.861Z,99.90
2022-08-16T01:57:00.097Z,99.90
2022-08-16T01:59:29.794Z,99.90
2022-08-16T02:02:00.077Z,99.90
2022-08-16T02:04:49.724Z,99.90
2022-08-16T02:07:24.453Z,99.90
2022-08-16T02:09:57.148Z,99.90
2022-08-16T02:12:49.439Z,99.90
2022-08-16T02:15:27.925Z,99.90
2022-08-16T02:17:59.073Z,99.90
2022-08-16T02:20:42.572Z,99.90
2022-08-16T02:23:17.125Z,99.90
2022-08-16T02:25:52.136Z,99.90
2022-08-16T02:28:23.889Z,99.90
2022-08-16T02:30:55.225Z,99.90
2022-08-16T02:33:43.500Z,99.90
2022-08-16T02:36:47.163Z,99.90
2022-08-16T02:39:12.079Z,99.90
2022-08-16T02:41:45.281Z,99.90
2022-08-16T02:44:21.640Z,99.90
2022-08-16T02:46:53.849Z,99.90
2022-08-16T02:49:32.318Z,99.90
2022-08-16T02:52:17.131Z,99.90
2022-08-16T02:54:55.867Z,99.90
2022-08-16T02:57:25.640Z,99.90
2022-08-16T02:59:54.833Z,99.90
2022-08-16T03:02:31.743Z,99.90
2022-08-16T03:05:05.132Z,99.90
2022-08-16T03:07:36.916Z,99.90
2022-08-16T03:10:08.903Z,99.90
2022-08-16T03:12:55.771Z,99.90
2022-08-16T03:15:36.593Z,99.90
2022-08-16T03:18:12.533Z,99.90
2022-08-16T03:20:55.458Z,99.90
2022-08-16T03:23:24.182Z,99.90
2022-08-16T03:25:52.299Z,99.90
2022-08-16T03:28:23.361Z,99.90
2022-08-16T03:30:53.232Z,99.90
2022-08-16T03:33:24.694Z,99.90
2022-08-16T03:35:59.438Z,99.90
2022-08-16T03:38:49.108Z,99.90
2022-08-16T03:41:25.266Z,99.90
2022-08-16T03:44:02.379Z,99.90
2022-08-16T03:46:47.259Z,99.90
2022-08-16T03:49:20.284Z,99.90
2022-08-16T03:51:52.217Z,99.90
2022-08-16T03:54:28.547Z,99.90
2022-08-16T03:56:58.637Z,99.90
2022-08-16T03:59:30.088Z,99.90
2022-08-16T04:02:01.702Z,99.90
2022-08-16T04:04:33.252Z,99.90
2022-08-16T04:07:05.809Z,99.90
2022-08-16T04:09:37.888Z,99.90
2022-08-16T04:12:11.368Z,99.90
2022-08-16T04:15:34.167Z,99.90
2022-08-16T04:18:22.787Z,99.90
2022-08-16T04:20:51.635Z,99.90
2022-08-16T04:23:27.320Z,99.90
2022-08-16T04:26:01.836Z,99.90
2022-08-16T04:28:56.703Z,99.90
2022-08-16T04:31:20.383Z,99.90
2022-08-16T04:33:51.067Z,99.90
2022-08-16T04:36:23.100Z,99.90
2022-08-16T04:38:52.400Z,99.90
2022-08-16T04:41:32.822Z,99.90
2022-08-16T04:44:02.797Z,99.90
2022-08-16T04:47:03.463Z,99.90
2022-08-16T04:49:46.261Z,99.90
2022-08-16T04:52:33.894Z,99.90
2022-08-16T04:55:11.972Z,99.90
2022-08-16T04:57:41.928Z,99.90
2022-08-16T05:00:25.272Z,99.90
2022-08-16T05:03:08.944Z,99.90
2022-08-16T05:05:59.107Z,99.90
2022-08-16T05:08:32.994Z,99.90
2022-08-16T05:11:15.219Z,99.90
2022-08-16T05:13:47.829Z,99.90
2022-08-16T05:16:29.945Z,99.90
2022-08-16T05:19:11.772Z,99.90
2022-08-16T05:21:51.716Z,99.90
2022-08-16T05:24:24.869Z,99.90
2022-08-16T05:26:54.636Z,99.90
2022-08-16T05:29:57.459Z,99.90
2022-08-16T05:32:32.631Z,99.90
2022-08-16T05:35:10.797Z,99.90
2022-08-16T05:37:43.138Z,99.90
2022-08-16T05:40:14.453Z,99.90
2022-08-16T05:42:46.082Z,99.90
2022-08-16T05:45:21.256Z,99.90
2022-08-16T05:47:49.661Z,99.90
2022-08-16T05:50:34.429Z,99.90
2022-08-16T05:53:04.144Z,99.90
2022-08-16T05:55:40.841Z,99.90
2022-08-16T05:58:09.334Z,99.90
2022-08-16T06:00:56.972Z,99.90
2022-08-16T06:03:26.088Z,99.90
2022-08-16T06:06:00.927Z,99.90
2022-08-16T06:08:32.205Z,99.90
2022-08-16T06:11:09.869Z,99.90
2022-08-16T06:14:12.048Z,99.90
2022-08-16T06:16:43.471Z,99.90
2022-08-16T06:19:12.511Z,99.90
2022-08-16T06:21:54.927Z,99.90
2022-08-16T06:24:54.243Z,99.90
2022-08-16T06:27:11.409Z,99.90
2022-08-16T06:29:40.925Z,99.90
2022-08-16T06:32:11.636Z,99.90
2022-08-16T06:35:02.292Z,99.90
2022-08-16T06:37:37.268Z,99.90
2022-08-16T06:40:12.943Z,99.90
2022-08-16T06:42:48.469Z,99.90
2022-08-16T06:46:03.588Z,99.90
2022-08-16T06:48:33.857Z,99.90
2022-08-16T06:51:05.898Z,99.90
2022-08-16T06:53:36.726Z,99.90
2022-08-16T06:56:14.718Z,99.90
2022-08-16T06:59:11.961Z,99.90
2022-08-16T07:01:50.800Z,99.90
2022-08-16T07:04:33.155Z,99.90
2022-08-16T07:07:14.424Z,99.90
2022-08-16T07:09:42.626Z,99.90
2022-08-16T07:12:10.668Z,99.90
2022-08-16T07:14:42.005Z,99.90
2022-08-16T07:17:13.818Z,99.90
2022-08-16T07:20:29.816Z,99.90
2022-08-16T07:22:53.081Z,99.90
2022-08-16T07:25:40.316Z,99.90
2022-08-16T07:28:20.842Z,99.90
2022-08-16T07:30:53.035Z,99.90
2022-08-16T07:33:52.190Z,99.90
2022-08-16T07:36:26.554Z,99.90
2022-08-16T07:39:10.489Z,99.90
2022-08-16T07:41:44.659Z,99.90
2022-08-16T07:44:16.737Z,99.90
2022-08-16T07:46:47.502Z,99.90
2022-08-16T07:49:23.794Z,99.90
2022-08-16T07:51:56.078Z,99.90
2022-08-16T07:54:32.120Z,99.90
2022-08-16T07:57:02.740Z,99.90
2022-08-16T07:59:42.775Z,99.90
2022-08-16T08:02:20.377Z,99.90
2022-08-16T08:04:51.088Z,99.90
2022-08-16T08:07:19.181Z,99.90
2022-08-16T08:09:50.145Z,99.90
2022-08-16T08:12:32.695Z,99.90
2022-08-16T08:15:25.319Z,99.90
2022-08-16T08:17:54.693Z,99.90
2022-08-16T08:20:29.894Z,99.90
2022-08-16T08:23:02.268Z,99.90
2022-08-16T08:25:53.400Z,99.90
2022-08-16T08:28:22.861Z,99.90
2022-08-16T08:31:00.685Z,99.90
2022-08-16T08:33:32.284Z,99.90
2022-08-16T08:36:07.652Z,99.90
2022-08-16T08:38:45.543Z,99.90
2022-08-16T08:41:18.930Z,99.90
2022-08-16T08:43:55.554Z,99.90
2022-08-16T08:46:25.479Z,99.90
2022-08-16T08:48:58.371Z,99.90
2022-08-16T08:51:31.846Z,99.90
2022-08-16T08:54:09.755Z,99.90
2022-08-16T08:56:45.271Z,99.90
2022-08-16T09:01:31.611Z,99.90
2022-08-16T09:03:17.509Z,99.90
2022-08-16T09:05:51.263Z,99.90
2022-08-16T09:08:22.226Z,99.90
2022-08-16T09:11:01.338Z,99.90
2022-08-16T09:13:33.180Z,99.90
2022-08-16T09:16:04.184Z,99.90
2022-08-16T09:18:35.857Z,99.90
2022-08-16T09:21:09.250Z,99.90
2022-08-16T09:23:39.562Z,99.90
2022-08-16T09:26:45.699Z,99.90
2022-08-16T09:29:15.438Z,99.90
2022-08-16T09:31:47.325Z,99.90
2022-08-16T09:34:21.547Z,99.90
2022-08-16T09:36:49.313Z,99.90
2022-08-16T09:39:22.396Z,99.90
2022-08-16T09:41:53.197Z,99.90
2022-08-16T09:45:12.989Z,99.90
2022-08-16T09:47:23.506Z,99.90
2022-08-16T09:50:14.693Z,99.90
2022-08-16T09:52:53.370Z,99.90
2022-08-16T09:55:23.312Z,99.90
2022-08-16T09:57:55.767Z,98.80
2022-08-16T10:01:28.347Z,99.90
2022-08-16T10:04:04.122Z,99.80
2022-08-16T10:06:37.998Z,99.90
2022-08-16T10:09:14.102Z,99.90
2022-08-16T10:16:51.195Z,99.10
2022-08-16T10:19:32.517Z,99.90
2022-08-16T10:22:04.833Z,99.90
2022-08-16T10:24:34.385Z,99.80
2022-08-16T10:27:26.443Z,99.90
2022-08-16T10:30:26.293Z,99.90
2022-08-16T10:32:56.692Z,98.90
2022-08-16T10:38:56.474Z,98.30
2022-08-16T10:41:37.201Z,97.60
2022-08-16T10:44:17.828Z,98.70
2022-08-16T10:47:08.053Z,98.40
2022-08-16T10:49:36.760Z,98.50
2022-08-16T10:52:19.189Z,97.50
2022-08-16T10:58:16.936Z,96.80
2022-08-16T11:00:46.505Z,95.20
2022-08-16T11:19:03.981Z,96.10
2022-08-16T11:21:37.613Z,94.40
2022-08-16T11:24:41.578Z,93.40
2022-08-16T11:27:21.231Z,94.40
2022-08-16T11:29:57.743Z,95.40
2022-08-16T11:32:32.324Z,95.10
2022-08-16T11:35:13.662Z,95.00
2022-08-16T11:38:23.606Z,94.70
2022-08-16T11:40:52.162Z,93.50
2022-08-16T11:43:30.261Z,92.80
2022-08-16T11:46:42.981Z,93.40
2022-08-16T11:48:57.082Z,93.30
2022-08-16T11:51:25.320Z,92.50
2022-08-16T11:53:53.222Z,93.00
2022-08-16T11:56:40.029Z,92.10
2022-08-16T11:59:10.037Z,92.30
2022-08-16T12:01:54.729Z,93.50
2022-08-16T12:04:23.782Z,93.60
2022-08-16T12:06:54.558Z,92.70
2022-08-16T12:09:24.701Z,92.40
2022-08-16T12:11:57.446Z,92.80
2022-08-16T12:14:29.954Z,92.70
2022-08-16T12:17:05.315Z,92.40
2022-08-16T12:19:40.246Z,92.70
2022-08-16T12:22:19.222Z,91.40
2022-08-16T12:24:51.194Z,91.70
2022-08-16T12:27:24.415Z,89.70
2022-08-16T12:30:27.074Z,91.30
2022-08-16T12:33:03.212Z,89.70
2022-08-16T12:35:33.511Z,89.70
2022-08-16T12:38:37.903Z,91.70
2022-08-16T12:40:55.517Z,90.70
2022-08-16T12:43:31.507Z,86.40
2022-08-16T12:45:59.691Z,90.40
2022-08-16T12:48:50.721Z,90.40
2022-08-16T12:51:25.297Z,90.10
2022-08-16T12:54:05.325Z,88.40
2022-08-16T12:56:38.856Z,89.10
2022-08-16T12:59:50.624Z,90.00
2022-08-16T13:02:33.264Z,89.60
2022-08-16T13:05:01.688Z,88.60
2022-08-16T13:07:31.907Z,84.10
2022-08-16T13:10:21.129Z,86.50
2022-08-16T13:13:05.845Z,86.20
2022-08-16T13:15:36.222Z,87.60
2022-08-16T13:18:33.922Z,86.60
2022-08-16T13:21:45.399Z,86.60
2022-08-16T13:25:06.511Z,88.90
2022-08-16T13:28:02.432Z,87.60
2022-08-16T13:30:35.864Z,84.20
2022-08-16T13:33:11.494Z,83.90
2022-08-16T13:35:43.957Z,86.10
2022-08-16T13:38:24.461Z,86.30
2022-08-16T13:40:55.916Z,86.50
2022-08-16T13:43:33.742Z,85.30
2022-08-16T13:46:13.337Z,84.30
2022-08-16T13:48:44.654Z,84.90
2022-08-16T13:51:19.735Z,86.10
2022-08-16T13:54:00.000Z,83.30
2022-08-16T13:56:36.958Z,88.80
2022-08-16T13:59:19.862Z,84.70
2022-08-16T14:01:55.211Z,86.20
2022-08-16T14:04:40.717Z,85.00
2022-08-16T14:07:12.289Z,85.40
2022-08-16T14:09:48.041Z,83.90
2022-08-16T14:12:25.667Z,83.80
2022-08-16T14:14:56.608Z,84.40
2022-08-16T14:17:27.779Z,83.10
2022-08-16T14:19:59.849Z,84.20
2022-08-16T14:22:40.040Z,81.80
2022-08-16T14:25:19.512Z,83.10
2022-08-16T14:27:48.087Z,81.70
2022-08-16T14:30:27.510Z,83.30
2022-08-16T14:33:02.863Z,82.50
2022-08-16T14:35:48.247Z,82.80
2022-08-16T14:38:19.229Z,84.10
2022-08-16T14:40:55.094Z,82.50
2022-08-16T14:43:32.610Z,84.40
2022-08-16T14:46:11.215Z,82.80
2022-08-16T14:48:49.803Z,83.60
2022-08-16T14:51:27.995Z,82.20
2022-08-16T14:54:11.330Z,81.80
2022-08-16T14:56:46.891Z,79.90
2022-08-16T14:59:26.942Z,81.50
2022-08-16T15:01:59.728Z,79.10
2022-08-16T15:04:39.742Z,78.40
2022-08-16T15:07:11.266Z,79.90
2022-08-16T15:09:44.770Z,81.60
2022-08-16T15:12:36.367Z,81.50
2022-08-16T15:15:12.710Z,82.70
2022-08-16T15:17:56.220Z,80.80
2022-08-16T15:20:29.447Z,81.90
2022-08-16T15:22:59.844Z,81.00
2022-08-16T15:25:35.513Z,81.60
2022-08-16T15:28:05.951Z,80.40
2022-08-16T15:30:56.979Z,81.60
2022-08-16T15:33:27.551Z,81.10
2022-08-16T15:35:57.905Z,82.90
2022-08-16T15:38:43.495Z,82.80
2022-08-16T15:41:42.980Z,81.40
2022-08-16T15:44:22.609Z,83.90
2022-08-16T15:46:57.083Z,85.00
2022-08-16T15:49:37.434Z,81.70
2022-08-16T15:52:29.246Z,81.80
2022-08-16T15:55:13.032Z,82.00
2022-08-16T15:57:51.234Z,83.00
2022-08-16T16:00:23.004Z,82.80
2022-08-16T16:03:01.587Z,80.80
2022-08-16T16:05:30.938Z,82.60
2022-08-16T16:08:11.644Z,81.80
2022-08-16T16:10:43.603Z,82.50
2022-08-16T16:13:23.429Z,82.00
2022-08-16T16:15:54.522Z,80.10
2022-08-16T16:18:24.701Z,80.00
2022-08-16T16:21:02.817Z,80.00
2022-08-16T16:23:44.814Z,81.10
2022-08-16T16:26:23.048Z,79.90
2022-08-16T16:29:08.086Z,79.40
2022-08-16T16:31:39.833Z,81.10
2022-08-16T16:34:08.055Z,79.80
2022-08-16T16:36:39.859Z,79.90
2022-08-16T16:39:11.342Z,79.00
2022-08-16T16:41:40.546Z,82.30
2022-08-16T16:44:18.269Z,80.10
2022-08-16T16:46:56.540Z,78.20
2022-08-16T16:49:25.792Z,78.10
2022-08-16T16:51:55.201Z,78.60
2022-08-16T16:54:35.644Z,79.40
2022-08-16T16:57:03.891Z,78.80
2022-08-16T16:59:31.678Z,78.90
2022-08-16T17:02:38.770Z,80.20
2022-08-16T17:04:49.995Z,80.10
2022-08-16T17:07:24.094Z,79.00
2022-08-16T17:09:53.518Z,79.60
2022-08-16T17:12:46.805Z,80.10
2022-08-16T17:15:14.948Z,80.10
2022-08-16T17:17:59.635Z,79.50
2022-08-16T17:20:30.729Z,80.10
2022-08-16T17:22:58.548Z,81.40
2022-08-16T17:25:35.058Z,83.00
2022-08-16T17:28:58.899Z,83.10
2022-08-16T17:30:57.129Z,85.20
2022-08-16T17:33:25.176Z,85.30
2022-08-16T17:35:56.127Z,87.20
2022-08-16T17:39:10.768Z,89.80
2022-08-16T17:41:39.144Z,90.30
2022-08-16T17:44:08.811Z,92.00
2022-08-16T17:46:50.494Z,92.20
2022-08-16T17:49:20.298Z,90.90
2022-08-16T17:51:48.092Z,91.50
2022-08-16T17:54:16.947Z,92.10
2022-08-16T17:57:01.366Z,93.30
2022-08-16T17:59:29.973Z,93.80
2022-08-16T18:01:58.289Z,93.10
2022-08-16T18:04:48.504Z,92.90
2022-08-16T18:07:17.108Z,93.20
2022-08-16T18:09:44.740Z,94.90
2022-08-16T18:12:51.130Z,95.60
2022-08-16T18:15:15.182Z,95.70
2022-08-16T18:17:43.966Z,95.40
2022-08-16T18:20:33.422Z,96.40
2022-08-16T18:23:14.983Z,97.50
2022-08-16T18:25:48.894Z,97.90
2022-08-16T18:28:17.495Z,97.20
2022-08-16T18:30:49.428Z,96.90
2022-08-16T18:33:21.495Z,96.60
2022-08-16T18:35:53.107Z,96.30
2022-08-16T18:38:23.386Z,96.60
2022-08-16T18:40:51.490Z,96.90
2022-08-16T18:43:21.766Z,97.00
2022-08-16T18:46:09.450Z,97.00
2022-08-16T18:48:37.361Z,97.40
2022-08-16T18:51:10.290Z,97.90
2022-08-16T18:53:40.834Z,99.10
2022-08-16T18:56:08.854Z,99.40
2022-08-16T18:58:36.669Z,98.40
2022-08-16T19:01:04.354Z,99.10
2022-08-16T19:03:33.009Z,98.10
2022-08-16T19:06:11.142Z,97.70
2022-08-16T19:08:45.708Z,98.40
2022-08-16T19:11:28.389Z,99.00
2022-08-16T19:13:59.692Z,99.40
2022-08-16T19:16:27.677Z,99.10
2022-08-16T19:18:57.796Z,99.00
2022-08-16T19:21:40.790Z,99.10
2022-08-16T19:24:29.050Z,99.10
2022-08-16T19:26:57.216Z,99.20
2022-08-16T19:29:25.162Z,99.60
2022-08-16T19:31:52.868Z,99.70
2022-08-16T19:34:20.544Z,99.90
2022-08-16T19:36:48.808Z,99.90
2022-08-16T19:39:20.324Z,99.90
2022-08-16T19:41:52.083Z,99.90
2022-08-16T19:45:06.823Z,99.90
2022-08-16T19:47:35.401Z,99.90
2022-08-16T19:50:03.498Z,99.80
2022-08-16T19:52:32.623Z,99.90
2022-08-16T19:55:06.474Z,99.90
2022-08-16T19:57:34.949Z,99.90
2022-08-16T20:00:11.288Z,99.90
2022-08-16T20:02:46.338Z,99.90
2022-08-16T20:05:16.016Z,99.90
2022-08-16T20:07:43.761Z,99.90
2022-08-16T20:10:12.903Z,99.90
2022-08-16T20:12:41.496Z,99.90
2022-08-16T20:15:16.152Z,99.90
2022-08-16T20:17:45.665Z,99.90
2022-08-16T20:20:16.228Z,99.90
2022-08-16T20:22:53.901Z,99.90
2022-08-16T20:25:29.789Z,99.90
2022-08-16T20:28:05.854Z,99.90
2022-08-16T20:30:33.618Z,99.90
2022-08-16T20:33:01.413Z,99.90
2022-08-16T20:35:29.790Z,99.90
2022-08-16T20:37:57.842Z,99.90
2022-08-16T20:40:33.273Z,99.90
2022-08-16T20:43:10.472Z,99.90
2022-08-16T20:45:40.797Z,99.90
2022-08-16T20:48:08.820Z,99.90
2022-08-16T20:50:37.006Z,99.90
2022-08-16T20:53:06.555Z,99.90
2022-08-16T20:55:36.333Z,99.90
2022-08-16T20:58:04.314Z,99.90
2022-08-16T21:00:33.579Z,99.90
2022-08-16T21:03:05.813Z,99.90
2022-08-16T21:05:34.316Z,99.90
2022-08-16T21:08:04.756Z,99.90
2022-08-16T21:10:50.204Z,99.90
2022-08-16T21:13:18.170Z,99.90
2022-08-16T21:15:45.838Z,99.90
2022-08-16T21:18:13.532Z,99.90
2022-08-16T21:20:41.459Z,99.90
2022-08-16T21:23:11.336Z,99.90
2022-08-16T21:25:42.888Z,99.90
2022-08-16T21:28:40.878Z,99.90
2022-08-16T21:31:08.521Z,99.90
2022-08-16T21:33:38.403Z,99.90
2022-08-16T21:36:06.705Z,99.90
2022-08-16T21:38:34.927Z,99.90
2022-08-16T21:41:04.123Z,99.90
2022-08-16T21:43:33.501Z,99.90
2022-08-16T21:46:06.429Z,99.90
2022-08-16T21:48:36.267Z,99.90
2022-08-16T21:51:09.974Z,99.90
2022-08-16T21:53:37.908Z,99.90
2022-08-16T21:56:06.722Z,99.90
2022-08-16T21:58:40.452Z,99.90
2022-08-16T22:01:08.641Z,99.90
2022-08-16T22:03:36.540Z,99.90
2022-08-16T22:06:14.187Z,99.90
2022-08-16T22:08:49.067Z,99.90
2022-08-16T22:11:20.071Z,99.90
2022-08-16T22:13:57.481Z,99.90
2022-08-16T22:16:33.016Z,99.90
2022-08-16T22:19:01.699Z,99.90
2022-08-16T22:21:30.758Z,99.90
2022-08-16T22:23:59.105Z,99.90
2022-08-16T22:26:32.643Z,99.90
2022-08-16T22:29:02.178Z,99.90
2022-08-16T22:31:30.220Z,99.90
2022-08-16T22:33:58.109Z,99.90
2022-08-16T22:36:28.139Z,99.90
2022-08-16T22:39:01.939Z,99.90
2022-08-16T22:41:32.076Z,99.90
2022-08-16T22:44:02.085Z,99.90
2022-08-16T22:46:30.478Z,99.90
2022-08-16T22:48:58.624Z,99.90
2022-08-16T22:51:28.432Z,99.90
2022-08-16T22:53:56.737Z,99.90
2022-08-16T22:56:24.986Z,99.90
2022-08-16T22:58:53.212Z,99.90
2022-08-16T23:01:23.108Z,99.90
2022-08-16T23:03:51.747Z,99.90
2022-08-16T23:06:19.462Z,99.90
2022-08-16T23:08:47.204Z,99.90
2022-08-16T23:11:21.295Z,99.90
2022-08-16T23:13:57.953Z,99.90
2022-08-16T23:16:32.312Z,99.90
2022-08-16T23:19:04.326Z,99.90
2022-08-16T23:21:33.122Z,99.90
2022-08-16T23:24:01.960Z,99.90
2022-08-16T23:26:47.204Z,99.90
2022-08-16T23:29:24.855Z,99.90
2022-08-16T23:32:08.282Z,99.90
2022-08-16T23:34:35.932Z,99.90
2022-08-16T23:37:03.679Z,99.90
2022-08-16T23:39:31.364Z,99.90
2022-08-16T23:41:59.069Z,99.90
2022-08-16T23:44:56.147Z,99.90
2022-08-16T23:47:14.401Z,99.90
2022-08-16T23:49:57.380Z,99.90
2022-08-16T23:52:39.397Z,99.90
2022-08-16T23:55:16.472Z,99.90
2022-08-16T23:57:46.196Z,99.90
